createdAt,value
2019-02-12T00:00:18.596Z,21.20
2019-02-12T00:01:18.626Z,20.40
2019-02-12T00:02:18.581Z,19.00
2019-02-12T00:03:18.561Z,21.20
2019-02-12T00:04:18.552Z,23.50
2019-02-12T00:05:18.539Z,22.90
2019-02-12T00:06:18.575Z,16.20
2019-02-12T00:07:18.518Z,18.20
2019-02-12T00:08:18.507Z,23.90
2019-02-12T00:09:18.523Z,20.00
2019-02-12T00:10:18.499Z,19.10
2019-02-12T00:11:18.574Z,21.80
2019-02-12T00:12:18.469Z,29.20
2019-02-12T00:13:18.452Z,20.20
2019-02-12T00:14:18.442Z,25.70
2019-02-12T00:15:18.437Z,20.60
2019-02-12T00:16:18.483Z,25.10
2019-02-12T00:17:18.412Z,22.80
2019-02-12T00:18:18.419Z,19.40
2019-02-12T00:19:18.390Z,22.70
2019-02-12T00:20:18.381Z,15.30
2019-02-12T00:21:18.423Z,23.70
2019-02-12T00:22:18.366Z,22.80
2019-02-12T00:23:18.350Z,24.00
2019-02-12T00:24:18.345Z,24.20
2019-02-12T00:25:18.326Z,21.50
2019-02-12T00:26:18.368Z,26.00
2019-02-12T00:27:18.308Z,21.00
2019-02-12T00:28:18.296Z,21.80
2019-02-12T00:29:18.292Z,20.70
2019-02-12T00:30:18.278Z,22.00
2019-02-12T00:31:18.312Z,26.30
2019-02-12T00:32:18.254Z,22.90
2019-02-12T00:33:18.243Z,25.80
2019-02-12T00:34:18.238Z,21.70
2019-02-12T00:35:18.220Z,20.30
2019-02-12T00:36:18.256Z,21.60
2019-02-12T00:37:18.203Z,27.10
2019-02-12T00:38:18.189Z,22.60
2019-02-12T00:39:18.179Z,25.50
2019-02-12T00:40:18.176Z,20.50
2019-02-12T00:41:18.217Z,23.50
2019-02-12T00:42:18.149Z,20.60
2019-02-12T00:43:18.138Z,27.00
2019-02-12T00:44:18.126Z,26.00
2019-02-12T00:45:18.116Z,25.40
2019-02-12T00:46:18.115Z,25.10
2019-02-12T00:47:18.139Z,27.50
2019-02-12T00:48:18.087Z,22.20
2019-02-12T00:49:18.072Z,32.00
2019-02-12T00:50:18.063Z,21.10
2019-02-12T00:51:18.150Z,27.10
2019-02-12T00:52:18.107Z,22.30
2019-02-12T00:53:18.035Z,21.70
2019-02-12T00:54:18.021Z,28.20
2019-02-12T00:55:18.010Z,19.70
2019-02-12T00:56:18.002Z,25.30
2019-02-12T00:57:18.031Z,33.10
2019-02-12T00:58:17.991Z,22.10
2019-02-12T00:59:17.971Z,28.50
2019-02-12T01:00:17.957Z,26.60
2019-02-12T01:01:17.944Z,26.90
2019-02-12T01:02:17.977Z,29.00
2019-02-12T01:03:17.923Z,29.90
2019-02-12T01:04:17.923Z,21.40
2019-02-12T01:05:17.903Z,32.40
2019-02-12T01:06:17.892Z,27.80
2019-02-12T01:07:17.927Z,29.30
2019-02-12T01:08:17.870Z,34.40
2019-02-12T01:09:17.859Z,29.90
2019-02-12T01:10:17.852Z,33.50
2019-02-12T01:11:17.838Z,30.20
2019-02-12T01:12:17.869Z,26.70
2019-02-12T01:13:17.816Z,26.40
2019-02-12T01:14:17.803Z,33.40
2019-02-12T01:15:17.794Z,28.00
2019-02-12T01:16:17.792Z,26.40
2019-02-12T01:17:17.817Z,28.00
2019-02-12T01:18:17.766Z,22.30
2019-02-12T01:19:17.751Z,26.30
2019-02-12T01:20:17.740Z,27.70
2019-02-12T01:21:25.864Z,25.90
2019-02-12T01:22:18.782Z,25.40
2019-02-12T01:23:17.709Z,36.20
2019-02-12T01:24:17.697Z,28.50
2019-02-12T01:25:17.693Z,28.00
2019-02-12T01:26:17.675Z,24.90
2019-02-12T01:27:17.713Z,26.10
2019-02-12T01:28:17.661Z,30.40
2019-02-12T01:29:17.644Z,27.00
2019-02-12T01:30:17.632Z,29.00
2019-02-12T01:31:17.621Z,25.80
2019-02-12T01:32:17.653Z,24.50
2019-02-12T01:33:17.600Z,26.60
2019-02-12T01:34:17.596Z,27.60
2019-02-12T01:35:17.579Z,25.60
2019-02-12T01:36:17.571Z,24.10
2019-02-12T01:37:17.600Z,21.50
2019-02-12T01:38:17.552Z,23.80
2019-02-12T01:39:17.536Z,28.00
2019-02-12T01:40:17.535Z,31.20
2019-02-12T01:41:17.514Z,22.50
2019-02-12T01:42:17.553Z,25.00
2019-02-12T01:43:17.493Z,24.50
2019-02-12T01:44:17.481Z,26.10
2019-02-12T01:45:17.474Z,29.20
2019-02-12T01:46:17.474Z,21.60
2019-02-12T01:47:17.492Z,23.70
2019-02-12T01:48:17.439Z,26.20
2019-02-12T01:49:17.427Z,27.50
2019-02-12T01:50:17.421Z,24.40
2019-02-12T01:51:17.418Z,21.30
2019-02-12T01:52:17.455Z,29.50
2019-02-12T01:53:17.387Z,22.50
2019-02-12T01:54:17.377Z,22.60
2019-02-12T01:55:17.364Z,27.30
2019-02-12T01:56:17.352Z,29.30
2019-02-12T01:57:17.385Z,27.30
2019-02-12T01:58:17.347Z,23.00
2019-02-12T01:59:17.322Z,27.10
2019-02-12T02:00:17.309Z,23.40
2019-02-12T02:01:17.298Z,30.00
2019-02-12T02:02:17.333Z,22.20
2019-02-12T02:03:17.278Z,19.20
2019-02-12T02:04:17.270Z,27.80
2019-02-12T02:05:17.255Z,21.30
2019-02-12T02:06:17.245Z,21.90
2019-02-12T02:07:17.279Z,19.00
2019-02-12T02:08:17.226Z,25.60
2019-02-12T02:09:17.213Z,22.30
2019-02-12T02:10:17.221Z,25.60
2019-02-12T02:11:17.191Z,16.90
2019-02-12T02:12:17.223Z,22.20
2019-02-12T02:13:17.171Z,24.90
2019-02-12T02:14:17.170Z,25.10
2019-02-12T02:15:17.149Z,24.00
2019-02-12T02:16:17.152Z,21.70
2019-02-12T02:17:17.171Z,23.00
2019-02-12T02:18:17.117Z,18.70
2019-02-12T02:19:17.106Z,22.30
2019-02-12T02:20:17.095Z,27.30
2019-02-12T02:21:17.085Z,23.60
2019-02-12T02:22:17.126Z,17.30
2019-02-12T02:23:17.064Z,25.30
2019-02-12T02:24:17.054Z,23.80
2019-02-12T02:25:17.041Z,26.10
2019-02-12T02:26:17.035Z,22.40
2019-02-12T02:27:17.063Z,20.50
2019-02-12T02:28:17.009Z,25.50
2019-02-12T02:29:17.017Z,22.80
2019-02-12T02:30:16.998Z,28.90
2019-02-12T02:31:16.980Z,25.90
2019-02-12T02:32:17.010Z,20.60
2019-02-12T02:33:16.959Z,21.20
2019-02-12T02:34:16.945Z,20.70
2019-02-12T02:35:16.941Z,26.80
2019-02-12T02:36:16.922Z,23.90
2019-02-12T02:37:16.960Z,25.90
2019-02-12T02:38:16.909Z,25.90
2019-02-12T02:39:16.917Z,25.80
2019-02-12T02:40:16.882Z,23.30
2019-02-12T02:41:16.873Z,20.40
2019-02-12T02:42:16.918Z,25.30
2019-02-12T02:43:16.849Z,23.50
2019-02-12T02:44:16.840Z,22.90
2019-02-12T02:45:16.835Z,19.20
2019-02-12T02:46:16.825Z,30.30
2019-02-12T02:47:16.816Z,24.20
2019-02-12T02:48:16.839Z,20.80
2019-02-12T02:49:16.784Z,23.40
2019-02-12T02:50:16.774Z,21.20
2019-02-12T02:51:16.764Z,21.40
2019-02-12T02:52:16.753Z,23.60
2019-02-12T02:53:16.815Z,22.70
2019-02-12T02:54:16.732Z,20.50
2019-02-12T02:55:16.721Z,26.80
2019-02-12T02:56:16.712Z,26.10
2019-02-12T02:57:16.699Z,23.40
2019-02-12T02:58:16.733Z,18.30
2019-02-12T02:59:16.682Z,21.40
2019-02-12T03:00:16.745Z,23.90
2019-02-12T03:01:16.660Z,23.30
2019-02-12T03:02:16.644Z,19.70
2019-02-12T03:03:16.681Z,22.30
2019-02-12T03:04:16.627Z,25.10
2019-02-12T03:05:16.614Z,18.10
2019-02-12T03:06:16.609Z,15.70
2019-02-12T03:07:16.594Z,24.60
2019-02-12T03:08:16.623Z,13.90
2019-02-12T03:09:16.572Z,22.10
2019-02-12T03:10:16.564Z,23.20
2019-02-12T03:11:16.551Z,22.60
2019-02-12T03:12:16.547Z,21.60
2019-02-12T03:13:16.569Z,21.90
2019-02-12T03:14:16.519Z,22.90
2019-02-12T03:15:16.506Z,23.00
2019-02-12T03:16:16.497Z,21.40
2019-02-12T03:17:16.485Z,22.80
2019-02-12T03:18:16.526Z,21.80
2019-02-12T03:19:16.467Z,20.00
2019-02-12T03:20:16.455Z,20.40
2019-02-12T03:21:16.442Z,22.10
2019-02-12T03:22:16.433Z,23.50
2019-02-12T03:23:16.466Z,25.30
2019-02-12T03:24:16.417Z,25.70
2019-02-12T03:25:16.401Z,20.50
2019-02-12T03:26:16.389Z,23.80
2019-02-12T03:27:16.381Z,21.70
2019-02-12T03:28:16.412Z,26.00
2019-02-12T03:29:16.359Z,21.30
2019-02-12T03:30:16.356Z,22.80
2019-02-12T03:31:16.338Z,26.50
2019-02-12T03:32:16.333Z,26.40
2019-02-12T03:33:16.359Z,20.60
2019-02-12T03:34:16.309Z,22.40
2019-02-12T03:35:16.294Z,25.20
2019-02-12T03:36:16.305Z,21.20
2019-02-12T03:37:16.272Z,24.40
2019-02-12T03:38:16.306Z,25.30
2019-02-12T03:39:16.253Z,18.20
2019-02-12T03:40:16.242Z,24.40
2019-02-12T03:41:16.232Z,19.00
2019-02-12T03:42:16.225Z,19.70
2019-02-12T03:43:16.261Z,19.90
2019-02-12T03:44:16.196Z,25.90
2019-02-12T03:45:16.206Z,19.90
2019-02-12T03:46:16.176Z,21.00
2019-02-12T03:47:16.164Z,22.40
2019-02-12T03:48:16.200Z,22.10
2019-02-12T03:49:16.144Z,24.50
2019-02-12T03:50:16.137Z,24.30
2019-02-12T03:51:16.124Z,23.90
2019-02-12T03:52:16.119Z,19.30
2019-02-12T03:53:16.143Z,30.40
2019-02-12T03:54:16.089Z,20.80
2019-02-12T03:55:16.078Z,23.20
2019-02-12T03:56:16.077Z,19.50
2019-02-12T03:57:16.072Z,19.80
2019-02-12T03:58:16.091Z,21.20
2019-02-12T03:59:16.045Z,23.50
2019-02-12T04:00:16.052Z,26.50
2019-02-12T04:01:16.015Z,24.70
2019-02-12T04:02:16.023Z,22.40
2019-02-12T04:03:16.047Z,20.40
2019-02-12T04:04:15.989Z,28.70
2019-02-12T04:05:15.974Z,22.50
2019-02-12T04:06:15.962Z,25.90
2019-02-12T04:07:15.950Z,23.20
2019-02-12T04:08:15.939Z,23.00
2019-02-12T04:09:15.972Z,22.00
2019-02-12T04:10:15.917Z,24.20
2019-02-12T04:11:15.935Z,28.50
2019-02-12T04:12:15.895Z,23.50
2019-02-12T04:13:15.886Z,27.90
2019-02-12T04:14:15.917Z,28.80
2019-02-12T04:15:15.863Z,23.50
2019-02-12T04:16:15.856Z,23.90
2019-02-12T04:17:15.860Z,30.60
2019-02-12T04:18:15.830Z,23.20
2019-02-12T04:19:15.875Z,24.40
2019-02-12T04:20:15.811Z,26.50
2019-02-12T04:21:15.799Z,23.80
2019-02-12T04:22:22.276Z,28.00
2019-02-12T04:23:16.781Z,25.90
2019-02-12T04:24:15.810Z,29.70
2019-02-12T04:25:15.756Z,26.70
2019-02-12T04:26:15.747Z,33.60
2019-02-12T04:27:15.737Z,25.50
2019-02-12T04:28:15.726Z,30.20
2019-02-12T04:29:15.764Z,28.50
2019-02-12T04:30:15.714Z,25.70
2019-02-12T04:31:15.695Z,30.00
2019-02-12T04:32:15.682Z,34.60
2019-02-12T04:33:15.673Z,30.90
2019-02-12T04:34:15.703Z,25.80
2019-02-12T04:35:15.658Z,24.80
2019-02-12T04:36:15.644Z,32.50
2019-02-12T04:37:15.629Z,31.10
2019-02-12T04:38:15.619Z,25.50
2019-02-12T04:39:15.651Z,29.70
2019-02-12T04:40:15.597Z,33.80
2019-02-12T04:41:15.583Z,33.70
2019-02-12T04:42:15.572Z,34.70
2019-02-12T04:43:15.582Z,32.90
2019-02-12T04:44:15.596Z,34.00
2019-02-12T04:45:15.552Z,29.60
2019-02-12T04:46:15.553Z,33.30
2019-02-12T04:47:15.518Z,29.00
2019-02-12T04:48:15.514Z,30.30
2019-02-12T04:49:15.550Z,27.70
2019-02-12T04:50:15.487Z,37.30
2019-02-12T04:51:15.479Z,33.70
2019-02-12T04:52:15.469Z,37.90
2019-02-12T04:53:15.455Z,32.40
2019-02-12T04:54:15.488Z,33.10
2019-02-12T04:55:15.452Z,37.90
2019-02-12T04:56:15.428Z,38.60
2019-02-12T04:57:15.412Z,34.10
2019-02-12T04:58:15.407Z,37.10
2019-02-12T04:59:15.449Z,31.40
2019-02-12T05:00:15.383Z,31.50
2019-02-12T05:01:15.369Z,34.90
2019-02-12T05:02:15.374Z,37.20
2019-02-12T05:03:15.352Z,32.80
2019-02-12T05:04:15.336Z,33.70
2019-02-12T05:05:15.370Z,40.60
2019-02-12T05:06:15.315Z,34.70
2019-02-12T05:07:15.304Z,38.50
2019-02-12T05:08:15.308Z,39.50
2019-02-12T05:09:15.289Z,32.80
2019-02-12T05:10:15.315Z,30.90
2019-02-12T05:11:15.259Z,32.40
2019-02-12T05:12:15.255Z,35.50
2019-02-12T05:13:15.243Z,36.60
2019-02-12T05:14:15.239Z,35.90
2019-02-12T05:15:15.271Z,37.10
2019-02-12T05:16:15.208Z,41.50
2019-02-12T05:17:15.197Z,36.70
2019-02-12T05:18:15.189Z,38.20
2019-02-12T05:19:15.180Z,35.50
2019-02-12T05:20:15.216Z,34.00
2019-02-12T05:21:15.161Z,41.40
2019-02-12T05:22:15.141Z,34.40
2019-02-12T05:23:15.132Z,40.00
2019-02-12T05:24:15.121Z,41.50
2019-02-12T05:25:15.155Z,38.00
2019-02-12T05:26:15.104Z,38.00
2019-02-12T05:27:15.088Z,37.40
2019-02-12T05:28:15.094Z,40.50
2019-02-12T05:29:15.064Z,38.80
2019-02-12T05:30:15.106Z,41.60
2019-02-12T05:31:15.047Z,38.10
2019-02-12T05:32:15.037Z,45.40
2019-02-12T05:33:15.022Z,40.80
2019-02-12T05:34:15.027Z,34.90
2019-02-12T05:35:15.046Z,40.90
2019-02-12T05:36:14.990Z,36.40
2019-02-12T05:37:14.979Z,36.10
2019-02-12T05:38:14.967Z,37.40
2019-02-12T05:39:14.969Z,36.80
2019-02-12T05:40:14.995Z,40.60
2019-02-12T05:41:14.934Z,38.30
2019-02-12T05:42:14.942Z,36.60
2019-02-12T05:43:14.918Z,31.60
2019-02-12T05:44:14.907Z,39.20
2019-02-12T05:45:14.940Z,36.10
2019-02-12T05:46:14.890Z,38.70
2019-02-12T05:47:14.872Z,44.00
2019-02-12T05:48:14.863Z,40.70
2019-02-12T05:49:14.850Z,36.60
2019-02-12T05:50:14.883Z,34.80
2019-02-12T05:51:14.829Z,38.50
2019-02-12T05:52:14.822Z,40.30
2019-02-12T05:53:14.809Z,35.20
2019-02-12T05:54:14.800Z,36.90
2019-02-12T05:55:14.831Z,35.50
2019-02-12T05:56:14.781Z,41.80
2019-02-12T05:57:14.763Z,43.40
2019-02-12T05:58:14.759Z,36.40
2019-02-12T05:59:14.743Z,34.20
2019-02-12T06:00:14.785Z,39.30
2019-02-12T06:01:14.720Z,37.80
2019-02-12T06:02:14.745Z,37.10
2019-02-12T06:03:14.716Z,35.90
2019-02-12T06:04:14.693Z,40.30
2019-02-12T06:05:14.719Z,40.20
2019-02-12T06:06:16.949Z,42.10
2019-02-12T06:07:14.656Z,39.60
2019-02-12T06:08:14.646Z,35.90
2019-02-12T06:09:14.631Z,39.00
2019-02-12T06:10:14.711Z,42.50
2019-02-12T06:11:14.610Z,37.20
2019-02-12T06:12:14.602Z,38.40
2019-02-12T06:13:14.597Z,37.00
2019-02-12T06:14:14.578Z,43.70
2019-02-12T06:15:14.574Z,38.20
2019-02-12T06:16:15.579Z,39.00
2019-02-12T06:17:14.544Z,37.80
2019-02-12T06:18:14.539Z,37.30
2019-02-12T06:19:14.549Z,39.80
2019-02-12T06:20:14.619Z,43.50
2019-02-12T06:21:14.547Z,40.90
2019-02-12T06:22:14.489Z,37.60
2019-02-12T06:23:14.479Z,40.30
2019-02-12T06:24:14.474Z,38.40
2019-02-12T06:25:14.458Z,40.50
2019-02-12T06:26:14.509Z,34.30
2019-02-12T06:27:14.435Z,41.50
2019-02-12T06:28:14.427Z,36.70
2019-02-12T06:29:14.420Z,34.00
2019-02-12T06:30:14.404Z,41.70
2019-02-12T06:31:14.434Z,38.80
2019-02-12T06:32:14.385Z,49.90
2019-02-12T06:33:14.369Z,44.10
2019-02-12T06:34:14.357Z,40.90
2019-02-12T06:35:14.348Z,38.10
2019-02-12T06:36:14.380Z,42.30
2019-02-12T06:37:14.327Z,36.40
2019-02-12T06:38:14.345Z,38.20
2019-02-12T06:39:14.303Z,46.60
2019-02-12T06:40:14.290Z,33.00
2019-02-12T06:41:14.324Z,38.80
2019-02-12T06:42:14.269Z,35.70
2019-02-12T06:43:14.258Z,39.20
2019-02-12T06:44:14.250Z,38.90
2019-02-12T06:45:14.237Z,43.80
2019-02-12T06:46:14.332Z,40.40
2019-02-12T06:47:14.215Z,40.20
2019-02-12T06:48:14.202Z,40.70
2019-02-12T06:49:14.194Z,37.70
2019-02-12T06:50:14.188Z,40.70
2019-02-12T06:51:14.212Z,42.10
2019-02-12T06:52:14.158Z,45.40
2019-02-12T06:53:14.146Z,40.80
2019-02-12T06:54:14.137Z,41.40
2019-02-12T06:55:14.125Z,44.00
2019-02-12T06:56:14.161Z,39.30
2019-02-12T06:57:14.105Z,41.60
2019-02-12T06:58:14.094Z,42.70
2019-02-12T06:59:14.083Z,41.90
2019-02-12T07:00:14.074Z,37.90
2019-02-12T07:01:14.115Z,47.10
2019-02-12T07:02:14.059Z,42.70
2019-02-12T07:03:14.039Z,44.70
2019-02-12T07:04:14.027Z,37.30
2019-02-12T07:05:14.019Z,45.40
2019-02-12T07:06:14.054Z,33.10
2019-02-12T07:07:13.993Z,48.50
2019-02-12T07:08:13.986Z,43.60
2019-02-12T07:09:13.974Z,37.80
2019-02-12T07:10:13.970Z,35.10
2019-02-12T07:11:13.997Z,34.40
2019-02-12T07:12:13.943Z,40.00
2019-02-12T07:13:13.933Z,40.20
2019-02-12T07:14:13.922Z,39.00
2019-02-12T07:15:13.909Z,35.70
2019-02-12T07:16:13.961Z,43.70
2019-02-12T07:17:13.886Z,41.50
2019-02-12T07:18:13.891Z,48.70
2019-02-12T07:19:13.870Z,36.30
2019-02-12T07:20:13.854Z,40.50
2019-02-12T07:21:13.887Z,44.20
2019-02-12T07:22:13.855Z,38.20
2019-02-12T07:23:21.169Z,39.20
2019-02-12T07:24:14.809Z,43.10
2019-02-12T07:25:13.803Z,39.00
2019-02-12T07:26:13.831Z,39.90
2019-02-12T07:27:13.781Z,39.30
2019-02-12T07:28:13.765Z,38.20
2019-02-12T07:29:13.758Z,41.20
2019-02-12T07:30:13.755Z,41.40
2019-02-12T07:31:13.781Z,38.80
2019-02-12T07:32:13.728Z,41.40
2019-02-12T07:33:13.731Z,35.20
2019-02-12T07:34:13.719Z,37.70
2019-02-12T07:35:13.698Z,43.70
2019-02-12T07:36:13.727Z,41.60
2019-02-12T07:37:13.675Z,39.40
2019-02-12T07:38:13.660Z,40.30
2019-02-12T07:39:13.667Z,35.90
2019-02-12T07:40:13.636Z,38.60
2019-02-12T07:41:19.889Z,45.60
2019-02-12T07:42:14.630Z,41.00
2019-02-12T07:43:13.608Z,40.90
2019-02-12T07:44:13.603Z,40.50
2019-02-12T07:45:13.585Z,41.80
2019-02-12T07:46:13.573Z,39.90
2019-02-12T07:47:13.607Z,36.70
2019-02-12T07:48:13.549Z,38.20
2019-02-12T07:49:13.543Z,44.20
2019-02-12T07:50:13.533Z,39.80
2019-02-12T07:51:13.530Z,34.80
2019-02-12T07:52:13.556Z,40.40
2019-02-12T07:53:13.503Z,35.50
2019-02-12T07:54:13.501Z,37.40
2019-02-12T07:55:13.475Z,45.50
2019-02-12T07:56:13.466Z,38.80
2019-02-12T07:57:13.498Z,39.20
2019-02-12T07:58:13.442Z,34.70
2019-02-12T07:59:13.435Z,33.40
2019-02-12T08:00:13.420Z,41.60
2019-02-12T08:01:13.422Z,33.70
2019-02-12T08:02:13.516Z,33.80
2019-02-12T08:03:13.389Z,34.10
2019-02-12T08:04:13.377Z,36.80
2019-02-12T08:05:13.377Z,37.00
2019-02-12T08:06:13.370Z,32.30
2019-02-12T08:07:13.394Z,32.90
2019-02-12T08:08:13.337Z,30.00
2019-02-12T08:09:13.330Z,34.40
2019-02-12T08:10:15.291Z,34.20
2019-02-12T08:11:13.306Z,31.50
2019-02-12T08:12:13.338Z,33.30
2019-02-12T08:13:13.283Z,35.30
2019-02-12T08:14:13.269Z,35.70
2019-02-12T08:15:13.263Z,33.50
2019-02-12T08:16:13.251Z,33.60
2019-02-12T08:17:13.284Z,34.50
2019-02-12T08:18:13.237Z,33.30
2019-02-12T08:19:13.244Z,37.20
2019-02-12T08:20:13.204Z,29.90
2019-02-12T08:21:13.193Z,28.60
2019-02-12T08:22:14.215Z,41.20
2019-02-12T08:23:13.174Z,37.80
2019-02-12T08:24:13.165Z,34.10
2019-02-12T08:25:13.188Z,29.50
2019-02-12T08:26:13.143Z,30.80
2019-02-12T08:27:13.183Z,31.40
2019-02-12T08:28:13.124Z,35.20
2019-02-12T08:29:13.117Z,33.70
2019-02-12T08:30:13.097Z,32.20
2019-02-12T08:31:13.091Z,28.60
2019-02-12T08:32:13.141Z,28.50
2019-02-12T08:33:13.068Z,33.00
2019-02-12T08:34:13.053Z,32.90
2019-02-12T08:35:13.045Z,35.20
2019-02-12T08:36:13.036Z,27.20
2019-02-12T08:37:13.027Z,27.20
2019-02-12T08:38:13.060Z,31.10
2019-02-12T08:39:13.006Z,33.40
2019-02-12T08:40:12.992Z,30.10
2019-02-12T08:41:12.982Z,24.80
2019-02-12T08:42:12.981Z,32.30
2019-02-12T08:43:13.005Z,30.60
2019-02-12T08:44:12.947Z,32.10
2019-02-12T08:45:12.957Z,31.90
2019-02-12T08:46:12.926Z,21.30
2019-02-12T08:47:12.919Z,29.40
2019-02-12T08:48:12.954Z,28.90
2019-02-12T08:49:12.900Z,33.10
2019-02-12T08:50:12.887Z,26.20
2019-02-12T08:51:12.874Z,26.40
2019-02-12T08:52:12.864Z,28.40
2019-02-12T08:53:12.894Z,30.90
2019-02-12T08:54:12.854Z,25.80
2019-02-12T08:55:12.831Z,35.40
2019-02-12T08:56:12.822Z,26.80
2019-02-12T08:57:12.810Z,31.00
2019-02-12T08:58:12.850Z,29.50
2019-02-12T08:59:12.792Z,29.40
2019-02-12T09:00:12.781Z,30.20
2019-02-12T09:01:12.771Z,27.20
2019-02-12T09:02:12.755Z,27.20
2019-02-12T09:03:12.796Z,30.10
2019-02-12T09:04:12.736Z,35.20
2019-02-12T09:05:12.726Z,29.20
2019-02-12T09:06:12.726Z,37.40
2019-02-12T09:07:12.707Z,25.20
2019-02-12T09:08:12.783Z,28.60
2019-02-12T09:09:12.685Z,31.40
2019-02-12T09:10:12.671Z,33.90
2019-02-12T09:11:12.672Z,28.60
2019-02-12T09:12:12.663Z,24.90
2019-02-12T09:13:12.685Z,32.00
2019-02-12T09:14:12.632Z,27.30
2019-02-12T09:15:12.621Z,28.40
2019-02-12T09:16:12.608Z,27.40
2019-02-12T09:17:12.608Z,24.70
2019-02-12T09:18:12.634Z,31.30
2019-02-12T09:19:12.578Z,29.90
2019-02-12T09:20:12.590Z,27.80
2019-02-12T09:21:12.554Z,25.30
2019-02-12T09:22:12.551Z,28.90
2019-02-12T09:23:12.584Z,27.70
2019-02-12T09:24:12.524Z,31.60
2019-02-12T09:25:12.518Z,23.00
2019-02-12T09:26:12.509Z,29.50
2019-02-12T09:27:12.492Z,26.00
2019-02-12T09:28:12.559Z,29.50
2019-02-12T09:29:12.484Z,27.80
2019-02-12T09:30:12.466Z,32.30
2019-02-12T09:31:12.453Z,24.00
2019-02-12T09:32:12.438Z,25.40
2019-02-12T09:33:12.472Z,30.20
2019-02-12T09:34:12.421Z,26.40
2019-02-12T09:35:12.408Z,31.50
2019-02-12T09:36:12.400Z,27.80
2019-02-12T09:37:12.393Z,32.50
2019-02-12T09:38:12.418Z,23.10
2019-02-12T09:39:12.363Z,26.10
2019-02-12T09:40:18.781Z,24.20
2019-02-12T09:41:13.344Z,26.60
2019-02-12T09:42:12.331Z,27.30
2019-02-12T09:43:12.376Z,23.90
2019-02-12T09:44:12.309Z,21.00
2019-02-12T09:45:12.299Z,28.30
2019-02-12T09:46:12.298Z,24.00
2019-02-12T09:47:12.278Z,21.70
2019-02-12T09:48:12.317Z,26.10
2019-02-12T09:49:12.256Z,26.70
2019-02-12T09:50:12.247Z,27.40
2019-02-12T09:51:12.237Z,22.20
2019-02-12T09:52:12.237Z,30.70
2019-02-12T09:53:12.261Z,28.90
2019-02-12T09:54:12.202Z,26.50
2019-02-12T09:55:12.201Z,26.60
2019-02-12T09:56:12.182Z,26.50
2019-02-12T09:57:12.173Z,22.80
2019-02-12T09:58:12.209Z,23.40
2019-02-12T09:59:12.150Z,25.80
2019-02-12T10:00:12.137Z,26.50
2019-02-12T10:01:12.133Z,29.20
2019-02-12T10:02:12.114Z,26.80
2019-02-12T10:03:12.154Z,19.60
2019-02-12T10:04:12.106Z,20.90
2019-02-12T10:05:12.083Z,23.00
2019-02-12T10:06:21.275Z,29.90
2019-02-12T10:07:13.067Z,21.40
2019-02-12T10:08:12.097Z,28.30
2019-02-12T10:09:12.047Z,23.90
2019-02-12T10:10:12.030Z,28.70
2019-02-12T10:11:12.020Z,27.50
2019-02-12T10:12:12.008Z,28.20
2019-02-12T10:13:12.042Z,25.30
2019-02-12T10:14:11.988Z,33.10
2019-02-12T10:15:11.984Z,32.50
2019-02-12T10:16:11.966Z,28.90
2019-02-12T10:17:11.957Z,30.00
2019-02-12T10:18:11.994Z,26.80
2019-02-12T10:19:11.932Z,31.70
2019-02-12T10:20:11.923Z,35.70
2019-02-12T10:21:11.928Z,31.90
2019-02-12T10:22:11.917Z,32.30
2019-02-12T10:23:11.951Z,26.30
2019-02-12T10:24:19.264Z,22.70
2019-02-12T10:25:12.867Z,26.00
2019-02-12T10:26:11.856Z,26.60
2019-02-12T10:27:11.851Z,30.70
2019-02-12T10:28:11.840Z,27.80
2019-02-12T10:29:11.891Z,35.10
2019-02-12T10:30:11.818Z,29.70
2019-02-12T10:31:11.806Z,30.00
2019-02-12T10:32:11.796Z,39.20
2019-02-12T10:33:11.801Z,27.60
2019-02-12T10:34:11.909Z,28.20
2019-02-12T10:35:11.759Z,28.50
2019-02-12T10:36:11.749Z,27.20
2019-02-12T10:37:11.746Z,27.00
2019-02-12T10:39:11.774Z,32.20
2019-02-12T10:40:11.708Z,23.80
2019-02-12T10:41:11.706Z,33.60
2019-02-12T10:42:11.683Z,27.00
2019-02-12T10:43:11.674Z,34.70
2019-02-12T10:44:11.703Z,32.30
2019-02-12T10:45:11.659Z,25.00
2019-02-12T10:46:11.648Z,23.50
2019-02-12T10:47:11.643Z,27.80
2019-02-12T10:48:11.621Z,26.40
2019-02-12T10:49:11.659Z,28.40
2019-02-12T10:50:11.606Z,25.60
2019-02-12T10:51:11.589Z,29.90
2019-02-12T10:52:11.579Z,29.10
2019-02-12T10:53:11.562Z,25.30
2019-02-12T10:54:13.505Z,23.50
2019-02-12T10:55:11.543Z,33.20
2019-02-12T10:56:11.545Z,26.20
2019-02-12T10:57:11.517Z,29.80
2019-02-12T10:58:11.517Z,24.60
2019-02-12T10:59:11.552Z,25.30
2019-02-12T11:00:11.499Z,26.30
2019-02-12T11:01:11.487Z,22.60
2019-02-12T11:02:11.486Z,29.70
2019-02-12T11:03:11.451Z,30.40
2019-02-12T11:04:11.509Z,26.50
2019-02-12T11:05:11.433Z,28.10
2019-02-12T11:06:11.421Z,26.00
2019-02-12T11:07:11.440Z,30.30
2019-02-12T11:08:11.395Z,27.90
2019-02-12T11:09:11.450Z,24.20
2019-02-12T11:10:11.389Z,25.50
2019-02-12T11:11:11.365Z,25.80
2019-02-12T11:12:11.358Z,29.50
2019-02-12T11:13:11.366Z,28.40
2019-02-12T11:14:11.375Z,26.60
2019-02-12T11:15:11.320Z,25.00
2019-02-12T11:16:11.310Z,31.00
2019-02-12T11:17:11.298Z,27.10
2019-02-12T11:18:11.327Z,23.50
2019-02-12T11:19:11.321Z,31.30
2019-02-12T11:20:11.269Z,23.10
2019-02-12T11:21:12.071Z,27.30
2019-02-12T11:22:11.245Z,25.90
2019-02-12T11:23:11.240Z,25.70
2019-02-12T11:24:11.280Z,24.80
2019-02-12T11:25:11.227Z,23.10
2019-02-12T11:26:11.203Z,28.90
2019-02-12T11:27:11.204Z,30.50
2019-02-12T11:28:11.181Z,24.60
2019-02-12T11:29:11.222Z,27.40
2019-02-12T11:30:11.172Z,28.00
2019-02-12T11:31:11.160Z,23.20
2019-02-12T11:32:11.135Z,22.20
2019-02-12T11:33:11.139Z,26.10
2019-02-12T11:34:11.156Z,24.80
2019-02-12T11:35:11.106Z,22.60
2019-02-12T11:36:11.106Z,19.50
2019-02-12T11:37:11.083Z,25.90
2019-02-12T11:38:11.069Z,22.90
2019-02-12T11:39:11.113Z,25.20
2019-02-12T11:40:11.049Z,26.30
2019-02-12T11:41:11.045Z,24.40
2019-02-12T11:42:11.039Z,26.10
2019-02-12T11:43:11.019Z,23.10
2019-02-12T11:44:11.154Z,21.20
2019-02-12T11:45:10.994Z,23.50
2019-02-12T11:46:10.985Z,21.40
2019-02-12T11:47:10.982Z,22.80
2019-02-12T11:48:10.985Z,22.10
2019-02-12T11:49:10.995Z,25.70
2019-02-12T11:50:10.947Z,27.10
2019-02-12T11:51:10.990Z,25.00
2019-02-12T11:52:10.934Z,29.50
2019-02-12T11:53:10.990Z,25.50
2019-02-12T11:54:10.968Z,26.60
2019-02-12T11:55:10.925Z,27.30
2019-02-12T11:56:10.891Z,24.80
2019-02-12T11:57:10.880Z,26.10
2019-02-12T11:58:10.868Z,23.50
2019-02-12T11:59:10.860Z,24.70
2019-02-12T12:00:10.875Z,24.10
2019-02-12T12:01:10.823Z,24.50
2019-02-12T12:02:10.818Z,26.00
2019-02-12T12:03:10.798Z,28.70
2019-02-12T12:04:10.793Z,26.10
2019-02-12T12:05:10.823Z,26.40
2019-02-12T12:06:10.767Z,32.90
2019-02-12T12:07:10.760Z,25.90
2019-02-12T12:08:10.744Z,22.30
2019-02-12T12:09:10.732Z,24.40
2019-02-12T12:10:10.943Z,26.30
2019-02-12T12:11:10.731Z,19.30
2019-02-12T12:12:10.704Z,23.80
2019-02-12T12:13:10.690Z,27.40
2019-02-12T12:14:10.701Z,27.10
2019-02-12T12:15:11.134Z,23.50
2019-02-12T12:16:11.240Z,22.30
2019-02-12T12:17:10.645Z,26.10
2019-02-12T12:18:10.639Z,21.90
2019-02-12T12:19:10.638Z,25.00
2019-02-12T12:20:10.657Z,25.40
2019-02-12T12:21:10.608Z,22.50
2019-02-12T12:22:10.605Z,23.00
2019-02-12T12:23:10.581Z,22.90
2019-02-12T12:24:10.570Z,28.60
2019-02-12T12:25:10.603Z,26.80
2019-02-12T12:26:10.563Z,26.50
2019-02-12T12:27:10.538Z,26.10
2019-02-12T12:28:10.532Z,16.30
2019-02-12T12:29:10.517Z,28.90
2019-02-12T12:30:10.552Z,26.30
2019-02-12T12:31:10.495Z,35.30
2019-02-12T12:32:10.493Z,36.70
2019-02-12T12:33:10.473Z,32.20
2019-02-12T12:34:10.462Z,20.60
2019-02-12T12:35:10.516Z,19.60
2019-02-12T12:36:10.442Z,20.80
2019-02-12T12:37:10.431Z,18.00
2019-02-12T12:38:10.436Z,20.80
2019-02-12T12:39:10.409Z,29.70
2019-02-12T12:40:10.400Z,25.50
2019-02-12T12:41:10.432Z,24.60
2019-02-12T12:42:10.378Z,22.20
2019-02-12T12:43:10.367Z,19.00
2019-02-12T12:44:10.361Z,18.90
2019-02-12T12:45:10.347Z,20.80
2019-02-12T12:46:10.382Z,13.10
2019-02-12T12:47:10.328Z,19.40
2019-02-12T12:48:10.366Z,24.80
2019-02-12T12:49:10.302Z,21.20
2019-02-12T12:50:10.291Z,23.10
2019-02-12T12:51:10.334Z,21.70
2019-02-12T12:52:10.270Z,20.50
2019-02-12T12:53:10.260Z,16.20